»·PEaware :: DB45 KMBS-KJFK

DB45 :: KMBS-KJFK

FLIGHT INFORMATION

Flight Status: Arrived
Operator: Unknown
More flights by this operator :: More flights under this callsign
Pilot: Fahad A. (11890)
Aircraft: BOEING 737-800
(B738)
More flights by this aircraft type
Origin: KMBS Mbs Intl
United States
Destination: KJFK Kennedy Intl
United States
More flights between these airports :: More routes between these airports
Route:
File this flight plan on PilotEdge
Remarks: Sample flight plan
Altitude:
(Current/Filed)
20,000ft
Speed:
(Current/Filed)
350kts
Departed: 04-Jul-16 03:15 AM
Arrived: 04-Jul-16 03:57 AM
Distance/Time
Traveled:
495nm/0:42
Distance/Time
To Go:
Arrived

Flight Plot

Page will automatically refresh every two minutes.


Map Options




Map Legend


Flown Route
Filed Route
Departure Airport
Arrival Airport
Navaid (VOR, NDB)
Fix

Horizontal Profiles

Position Reports

Time Latitude Longitude Heading Altitude Ground
Speed
04-Jul-16 03:10 42.157436 -71.205598 238 12247ft 290kts
04-Jul-16 03:11 42.107461 -71.287730 233 14779ft 303kts
04-Jul-16 03:12 42.053356 -71.368823 233 17210ft 309kts
04-Jul-16 03:13 42.002917 -71.442670 233 18757ft 331kts
04-Jul-16 03:14 41.958106 -71.508582 233 19861ft 342kts
04-Jul-16 03:15 41.906103 -71.584575 233 20086ft 339kts
04-Jul-16 03:16 41.849359 -71.665682 232 20106ft 341kts
04-Jul-16 03:17 41.785604 -71.759000 233 20093ft 351kts
04-Jul-16 03:18 41.725109 -71.851629 234 19312ft 331kts
04-Jul-16 03:19 41.670688 -71.935924 234 18388ft 328kts
04-Jul-16 03:20 41.619940 -72.015490 234 17512ft 324kts
04-Jul-16 03:21 41.573599 -72.088779 234 16668ft 319kts
04-Jul-16 03:22 41.534560 -72.151788 236 15763ft 306kts
04-Jul-16 03:23 41.500494 -72.211283 237 14913ft 302kts
04-Jul-16 03:24 41.456660 -72.290179 238 13522ft 287kts
04-Jul-16 03:25 41.413672 -72.369194 238 12101ft 275kts
04-Jul-16 03:26 41.375571 -72.437162 236 10821ft 267kts
04-Jul-16 03:27 41.339440 -72.501109 236 9510ft 264kts
04-Jul-16 03:28 41.299776 -72.572091 236 7926ft 265kts
04-Jul-16 03:29 41.259100 -72.644899 236 6603ft 255kts
04-Jul-16 03:30 41.225008 -72.705947 236 5745ft 237kts
04-Jul-16 03:31 41.189145 -72.770293 238 5063ft 232kts
04-Jul-16 03:32 41.155187 -72.837622 238 4997ft 234kts
04-Jul-16 03:33 41.119606 -72.906638 238 4971ft 245kts
04-Jul-16 03:34 41.084755 -72.970455 237 4967ft 243kts
04-Jul-16 03:35 41.050149 -73.030260 234 4974ft 243kts
04-Jul-16 03:36 41.013773 -73.086123 230 4978ft 243kts
04-Jul-16 03:37 40.975596 -73.138538 229 4980ft 243kts
04-Jul-16 03:38 40.938849 -73.188627 231 4984ft 204kts
04-Jul-16 03:39 40.907990 -73.234325 232 4239ft 197kts
04-Jul-16 03:40 40.878555 -73.278147 231 3511ft 199kts
04-Jul-16 03:41 40.848388 -73.323354 231 3046ft 198kts
04-Jul-16 03:42 40.821274 -73.366810 234 2992ft 193kts
04-Jul-16 03:43 40.795454 -73.414769 239 3001ft 199kts
04-Jul-16 03:44 40.769073 -73.467570 239 2715ft 202kts
04-Jul-16 03:45 40.742213 -73.518157 237 2517ft 199kts
04-Jul-16 03:46 40.716458 -73.565936 239 2155ft 194kts
04-Jul-16 03:47 40.692094 -73.615561 247 1999ft 197kts
04-Jul-16 03:48 40.691786 -73.655179 283 1790ft 156kts
04-Jul-16 03:49 40.694035 -73.668235 284 1624ft 147kts
04-Jul-16 03:50 40.701586 -73.708915 252 1210ft 139kts
04-Jul-16 03:51 40.671914 -73.733485 212 643ft 140kts
04-Jul-16 03:52 40.639289 -73.759442 212 23ft 132kts
04-Jul-16 03:53 40.629524 -73.768333 242 22ft 0kts
04-Jul-16 03:54 40.701260 -73.710063 247 1193ft 139kts
04-Jul-16 03:55 40.695455 -73.675280 289 1564ft 139kts
04-Jul-16 03:56 40.697375 -73.716266 216 1036ft 144kts
04-Jul-16 03:57 40.667078 -73.737184 213 531ft 143kts
04-Jul-16 03:58 40.636801 -73.761452 210 22ft 104kts
04-Jul-16 03:59 40.691200 -73.618250 253 2012ft 193kts
04-Jul-16 04:00 40.689872 -73.627745 271 2019ft 180kts

Navigation Log

Ident Type
1. KMBS Airport
2. KJFK Airport